Terminal Aerodrome Forecast
Issued by NWS

Home | Current Version | Previous Version | Text Only | Print | Product List | Glossary On
Versions: 1 2 3 4 5 6 7 8 9 10 11 12 13 14 15 16
000
FTUS43 KDTX 241948 AAA
TAFPTK
TAF AMD
KPTK 241948Z 2420/2518 22005KT P6SM BKN035
     FM250200 24003KT P6SM SCT035 BKN050
     FM250900 23006KT 4SM BR BKN018
     FM251400 27010G18KT 4SM BR OVC015=

USA.gov is the U.S. government's official web portal to all federal, state and local government web resources and services.